Rockbridge, Missouri
Current Conditions -  °F | °C
As of 11:53 PM on Saturday 20 Dec 2014 (Local Time) from KUNO Reporting Station
Overcast Overcast  
Wind Chill: 35°   Ceiling: 2300
Heat Index: 40°   Visibility: 9mi
Dew Point: 35°   Wind: 7mph
Humidity: 83%   Direction: 160°SSE
Pressure: 30.21"   Gusts: NA
Location:  36.79°N, 92.41°W
Report Text: KUNO 210553Z AUTO 16006KT 9SM OVC023 04/02 A3021 RMK AO2 SLP237 T00440017 10050 20044 400720006 58002 $
Loading
Personal Weather Stations






























Interactive Weather Map New forecast layout! Learn more

10-Day Weather Forecast

Advertisements
Track Severe Weather on mobile